Time;durP1;ratioP1;P1;durP2;ratioP2;P2;SDS_P1;SDS_P2;PMS_P1;PMS_P2;Temp;Humidity;BMP_temperature;BMP_pressure;BME280_temperature;BME280_humidity;BME280_pressure;Samples;Min_cycle;Max_cycle;Signal;HPM_P1;HPM_P2
2021/08/15 00:01:35;;;;;;;14.33;8.67;;;21.60;36.30;;;;;;5054426;28;20209;-81
2021/08/15 00:04:01;;;;;;;10.97;7.07;;;21.70;29.80;;;;;;5054669;28;20587;-81
2021/08/15 00:06:26;;;;;;;13.57;7.00;;;21.50;28.90;;;;;;5054732;28;20172;-82
2021/08/15 00:08:52;;;;;;;12.00;6.40;;;21.50;27.80;;;;;;5054435;28;20561;-82
2021/08/15 00:11:18;;;;;;;11.23;6.83;;;21.50;28.80;;;;;;5054954;28;20181;-82
2021/08/15 00:13:44;;;;;;;9.60;6.40;;;21.30;33.80;;;;;;5073394;28;20169;-78
2021/08/15 00:16:09;;;;;;;9.50;6.53;;;21.10;38.30;;;;;;5062949;28;20188;-80
2021/08/15 00:18:37;;;;;;;9.63;6.37;;;21.10;41.40;;;;;;5054380;28;20318;-82
2021/08/15 00:21:02;;;;;;;9.07;6.37;;;21.10;43.00;;;;;;5053935;28;20193;-82
2021/08/15 00:23:28;;;;;;;10.47;7.10;;;20.90;48.40;;;;;;5053572;28;20177;-82
2021/08/15 00:25:54;;;;;;;12.50;7.00;;;20.90;52.10;;;;;;5052874;28;20534;-83
2021/08/15 00:28:19;;;;;;;11.17;6.40;;;20.80;53.20;;;;;;5053990;28;20563;-81
2021/08/15 00:30:46;;;;;;;12.80;7.00;;;20.80;52.10;;;;;;5053732;28;20250;-82
2021/08/15 00:33:11;;;;;;;14.23;7.00;;;20.70;52.50;;;;;;5055226;28;20167;-83
2021/08/15 00:35:37;;;;;;;12.63;7.63;;;20.70;55.10;;;;;;5054014;28;20696;-82
2021/08/15 00:38:03;;;;;;;12.63;7.20;;;20.60;57.00;;;;;;5053841;28;20165;-82
2021/08/15 00:40:28;;;;;;;12.20;7.57;;;20.60;58.30;;;;;;5053594;28;20260;-82
2021/08/15 00:42:54;;;;;;;13.50;7.10;;;20.70;57.80;;;;;;5053528;28;20803;-81
2021/08/15 00:45:20;;;;;;;10.70;6.90;;;20.70;57.60;;;;;;5053517;28;20249;-77
2021/08/15 00:47:45;;;;;;;15.20;7.57;;;20.60;58.70;;;;;;5053660;28;20544;-82
2021/08/15 00:50:11;;;;;;;12.93;7.27;;;20.60;60.90;;;;;;5053576;28;20212;-77
2021/08/15 00:52:37;;;;;;;10.73;6.63;;;20.60;62.20;;;;;;5053356;28;20180;-82
2021/08/15 00:55:07;;;;;;;11.00;6.87;;;20.50;61.50;;;;;;5053507;28;20636;-82
2021/08/15 00:57:35;;;;;;;11.57;7.43;;;20.60;61.40;;;;;;5053532;28;20738;-82
2021/08/15 01:00:06;;;;;;;14.27;7.97;;;20.70;60.20;;;;;;5053009;28;20322;-79
2021/08/15 01:02:35;;;;;;;12.20;7.17;;;20.70;57.90;;;;;;5052794;28;20227;-77
2021/08/15 01:05:02;;;;;;;11.83;7.47;;;20.60;60.40;;;;;;5051722;28;20544;-79
2021/08/15 01:07:28;;;;;;;13.00;8.13;;;20.50;61.90;;;;;;5053138;28;20263;-78
2021/08/15 01:09:54;;;;;;;11.67;6.53;;;20.40;65.10;;;;;;5053220;28;20326;-77
2021/08/15 01:12:19;;;;;;;12.93;7.53;;;20.40;66.80;;;;;;5053171;28;20248;-77
2021/08/15 01:14:45;;;;;;;11.03;7.50;;;20.20;69.80;;;;;;5052968;28;20394;-81
2021/08/15 01:17:12;;;;;;;12.60;8.27;;;20.10;71.70;;;;;;5053383;28;20168;-82
2021/08/15 01:19:37;;;;;;;16.40;8.07;;;20.20;71.80;;;;;;5053184;28;20636;-77
2021/08/15 01:22:03;;;;;;;12.50;7.10;;;20.20;70.40;;;;;;5053188;28;20307;-82
2021/08/15 01:24:29;;;;;;;14.10;8.27;;;20.30;70.90;;;;;;5053282;28;20579;-81
2021/08/15 01:26:58;;;;;;;12.10;8.07;;;20.40;68.00;;;;;;5053343;28;20660;-80
2021/08/15 01:29:24;;;;;;;13.30;8.37;;;20.30;68.70;;;;;;5052725;28;20178;-80
2021/08/15 01:31:50;;;;;;;14.53;7.60;;;20.30;67.90;;;;;;5053131;28;20195;-81
2021/08/15 01:34:16;;;;;;;12.40;8.17;;;20.30;66.60;;;;;;5054889;28;20628;-82
2021/08/15 01:36:42;;;;;;;11.00;7.27;;;20.30;65.20;;;;;;5057430;28;20561;-78
2021/08/15 01:39:08;;;;;;;12.53;7.47;;;20.20;66.90;;;;;;5057351;28;20245;-82
2021/08/15 01:41:33;;;;;;;12.37;7.93;;;20.00;69.60;;;;;;5057166;28;20212;-77
2021/08/15 01:44:02;;;;;;;12.70;7.50;;;20.00;71.80;;;;;;5056678;28;20168;-77
2021/08/15 01:46:30;;;;;;;15.40;7.50;;;20.00;71.10;;;;;;5056746;28;20184;-78
2021/08/15 01:48:57;;;;;;;12.87;8.00;;;20.10;70.30;;;;;;5055696;28;20177;-77
2021/08/15 01:51:23;;;;;;;11.27;7.10;;;20.00;72.10;;;;;;5038863;28;20207;-78
2021/08/15 01:53:51;;;;;;;13.77;8.00;;;19.90;73.60;;;;;;5056785;28;20640;-77
2021/08/15 01:56:18;;;;;;;13.27;7.50;;;19.90;74.10;;;;;;5056736;28;20237;-81
2021/08/15 01:58:44;;;;;;;11.93;8.00;;;20.00;69.70;;;;;;5056677;28;20217;-80
2021/08/15 02:01:17;;;;;;;11.57;7.13;;;20.00;71.10;;;;;;5056626;28;20207;-81
2021/08/15 02:03:44;;;;;;;11.67;8.03;;;19.90;74.10;;;;;;5057253;28;20169;-81
2021/08/15 02:06:10;;;;;;;15.07;7.73;;;19.80;74.30;;;;;;5056581;28;20640;-78
2021/08/15 02:08:36;;;;;;;11.07;7.87;;;19.70;76.70;;;;;;5056603;28;20183;-81
2021/08/15 02:11:01;;;;;;;9.90;7.10;;;19.70;78.10;;;;;;5056188;28;20238;-82
2021/08/15 02:13:27;;;;;;;12.37;7.50;;;19.70;78.50;;;;;;5056516;28;20209;-79
2021/08/15 02:15:53;;;;;;;12.83;7.80;;;19.80;75.10;;;;;;5056690;28;20211;-82
2021/08/15 02:18:19;;;;;;;12.70;7.37;;;19.70;75.50;;;;;;5055313;28;20206;-81
2021/08/15 02:20:44;;;;;;;15.37;8.37;;;19.60;76.80;;;;;;5057057;28;20199;-82
2021/08/15 02:23:11;;;;;;;13.27;7.70;;;19.50;78.50;;;;;;5067625;28;20171;-78
2021/08/15 02:25:37;;;;;;;14.80;7.83;;;19.40;81.40;;;;;;5080535;28;20172;-81
2021/08/15 02:28:03;;;;;;;14.23;7.43;;;19.40;82.20;;;;;;5066334;28;20612;-81
2021/08/15 02:30:29;;;;;;;12.70;7.77;;;19.40;82.50;;;;;;5063108;28;20167;-83
2021/08/15 02:32:55;;;;;;;14.30;7.77;;;19.50;82.20;;;;;;5056883;28;20176;-78
2021/08/15 02:35:21;;;;;;;14.93;7.97;;;19.30;82.00;;;;;;5056226;28;20171;-81
2021/08/15 02:37:52;;;;;;;17.53;7.87;;;19.30;82.60;;;;;;5059177;28;20257;-83
2021/08/15 02:40:20;;;;;;;14.57;7.43;;;19.20;83.30;;;;;;5061461;28;20183;-82
2021/08/15 02:42:47;;;;;;;15.47;8.30;;;19.20;84.50;;;;;;5069778;28;20219;-80
2021/08/15 02:45:15;;;;;;;14.43;7.40;;;19.20;84.10;;;;;;5052029;28;20199;-81
2021/08/15 02:47:40;;;;;;;9.97;7.37;;;19.20;84.50;;;;;;5070882;28;20183;-81
2021/08/15 02:50:07;;;;;;;11.60;7.47;;;19.20;84.50;;;;;;5067872;28;20174;-79
2021/08/15 02:52:36;;;;;;;13.23;7.37;;;19.20;84.20;;;;;;5043139;28;20589;-81
2021/08/15 02:55:05;;;;;;;14.07;6.57;;;19.20;83.90;;;;;;5056529;28;20175;-80
2021/08/15 02:57:32;;;;;;;13.70;6.73;;;19.20;83.30;;;;;;5056527;28;20655;-82
2021/08/15 02:59:57;;;;;;;13.57;7.30;;;19.10;84.00;;;;;;5056157;28;20242;-81
2021/08/15 03:02:23;;;;;;;17.80;7.37;;;19.10;84.30;;;;;;5054477;28;20585;-81
2021/08/15 03:04:49;;;;;;;10.67;6.77;;;19.10;84.50;;;;;;5055757;28;20182;-80
2021/08/15 03:07:17;;;;;;;12.70;7.03;;;19.30;79.60;;;;;;5055981;28;20256;-81
2021/08/15 03:09:43;;;;;;;14.97;6.67;;;19.40;77.50;;;;;;5037491;28;20213;-81
2021/08/15 03:12:09;;;;;;;11.73;7.13;;;19.20;80.80;;;;;;5055608;28;20186;-81
2021/08/15 03:14:38;;;;;;;14.63;7.40;;;19.30;78.50;;;;;;5055509;28;20178;-83
2021/08/15 03:17:03;;;;;;;10.57;6.50;;;19.40;77.90;;;;;;5055580;28;20248;-78
2021/08/15 03:19:29;;;;;;;14.07;7.57;;;19.30;79.30;;;;;;5055382;28;20252;-81
2021/08/15 03:21:55;;;;;;;11.80;6.97;;;19.30;79.30;;;;;;5055164;28;20201;-84
2021/08/15 03:24:20;;;;;;;10.70;7.00;;;19.40;78.10;;;;;;5055177;28;20574;-81
2021/08/15 03:26:46;;;;;;;10.90;6.90;;;19.30;77.70;;;;;;5055601;28;20340;-79
2021/08/15 03:29:13;;;;;;;14.40;6.90;;;19.30;79.80;;;;;;5056108;28;20169;-82
2021/08/15 03:31:40;;;;;;;12.63;6.73;;;19.40;78.30;;;;;;5055688;28;20165;-81
2021/08/15 03:34:06;;;;;;;12.93;6.73;;;19.40;75.40;;;;;;5055347;28;20166;-82
2021/08/15 03:36:31;;;;;;;13.53;7.50;;;19.30;79.50;;;;;;5055435;28;20536;-77
2021/08/15 03:38:57;;;;;;;13.70;7.23;;;19.30;79.20;;;;;;5054737;28;20172;-77
2021/08/15 03:41:23;;;;;;;13.17;6.63;;;19.10;81.90;;;;;;5055072;28;20206;-81
2021/08/15 03:43:49;;;;;;;12.30;6.80;;;19.00;85.10;;;;;;5054967;28;20242;-80
2021/08/15 03:46:14;;;;;;;12.73;7.07;;;19.20;81.50;;;;;;5054775;28;20276;-77
2021/08/15 03:48:40;;;;;;;12.17;7.27;;;19.30;76.80;;;;;;5053731;28;20183;-78
2021/08/15 03:51:05;;;;;;;10.60;7.67;;;19.40;74.60;;;;;;5054821;28;20205;-81
2021/08/15 03:53:31;;;;;;;12.57;7.03;;;19.30;76.00;;;;;;5062894;28;20528;-76
2021/08/15 03:55:57;;;;;;;14.70;7.17;;;19.20;77.80;;;;;;5047013;28;20178;-77
2021/08/15 03:58:23;;;;;;;10.20;6.20;;;19.10;82.70;;;;;;5057150;28;20172;-79
2021/08/15 04:00:48;;;;;;;11.37;7.20;;;19.00;84.30;;;;;;5055048;28;20204;-79
2021/08/15 04:03:14;;;;;;;11.03;6.53;;;19.00;85.80;;;;;;5054704;28;20209;-79
2021/08/15 04:05:40;;;;;;;12.70;7.23;;;19.10;85.90;;;;;;5055088;28;20199;-80
2021/08/15 04:08:06;;;;;;;12.53;7.23;;;19.10;84.00;;;;;;5054148;28;20205;-81
2021/08/15 04:10:33;;;;;;;12.30;6.97;;;19.20;82.10;;;;;;5054157;28;20190;-81
2021/08/15 04:12:58;;;;;;;11.33;6.77;;;19.10;82.90;;;;;;5054356;28;20185;-81
2021/08/15 04:15:25;;;;;;;12.63;6.80;;;19.00;83.10;;;;;;5054364;28;20556;-81
2021/08/15 04:17:50;;;;;;;15.63;7.43;;;19.10;82.10;;;;;;5053031;28;20186;-82
2021/08/15 04:20:16;;;;;;;11.83;6.80;;;19.30;78.30;;;;;;5054275;28;20177;-79
2021/08/15 04:22:42;;;;;;;13.43;6.90;;;19.30;76.00;;;;;;5053574;28;20334;-81
2021/08/15 04:25:08;;;;;;;11.67;7.53;;;19.40;74.30;;;;;;5054074;28;20206;-82
2021/08/15 04:27:34;;;;;;;12.33;7.03;;;19.40;74.00;;;;;;5054047;28;20202;-78
2021/08/15 04:29:59;;;;;;;13.40;7.43;;;19.30;77.90;;;;;;5054315;28;20167;-80
2021/08/15 04:32:25;;;;;;;12.73;6.33;;;19.10;81.60;;;;;;5053931;28;20631;-81
2021/08/15 04:34:51;;;;;;;12.60;6.53;;;19.20;80.70;;;;;;5054099;28;20167;-79
2021/08/15 04:37:18;;;;;;;10.83;6.17;;;19.30;78.90;;;;;;5053646;28;20251;-80
2021/08/15 04:39:44;;;;;;;14.87;7.27;;;19.10;79.20;;;;;;5053970;28;20205;-81
2021/08/15 04:42:11;;;;;;;12.67;6.97;;;19.20;79.60;;;;;;5053962;28;20248;-82
2021/08/15 04:44:36;;;;;;;15.33;6.77;;;19.20;78.10;;;;;;5054017;28;20185;-83
2021/08/15 04:47:02;;;;;;;11.40;6.83;;;19.30;77.00;;;;;;5053409;28;20183;-80
2021/08/15 04:49:28;;;;;;;12.87;7.03;;;19.30;74.60;;;;;;5054038;28;20176;-78
2021/08/15 04:51:55;;;;;;;19.73;7.87;;;19.40;73.90;;;;;;5053442;28;20179;-79
2021/08/15 04:54:25;;;;;;;15.77;6.87;;;19.50;71.40;;;;;;5053520;28;20225;-80
2021/08/15 04:56:50;;;;;;;13.83;7.90;;;19.40;71.40;;;;;;5053554;28;20654;-79
2021/08/15 04:59:16;;;;;;;12.20;7.20;;;19.40;72.50;;;;;;5053306;28;20215;-79
2021/08/15 05:01:41;;;;;;;13.00;6.53;;;19.30;75.00;;;;;;5053259;28;20207;-78
2021/08/15 05:04:07;;;;;;;11.03;6.80;;;19.20;78.20;;;;;;5053317;28;20649;-79
2021/08/15 05:06:33;;;;;;;12.17;7.03;;;19.00;83.20;;;;;;5053253;28;20629;-81
2021/08/15 05:08:59;;;;;;;13.90;7.17;;;18.80;86.60;;;;;;5052925;28;20161;-81
2021/08/15 05:11:24;;;;;;;11.10;6.57;;;18.90;88.10;;;;;;5053595;28;20190;-81
2021/08/15 05:13:50;;;;;;;12.87;7.47;;;19.00;84.60;;;;;;5053166;28;20625;-80
2021/08/15 05:16:16;;;;;;;13.20;6.87;;;19.10;81.50;;;;;;5053281;28;20170;-83
2021/08/15 05:18:42;;;;;;;12.27;7.27;;;19.10;82.50;;;;;;5053184;28;20171;-81
2021/08/15 05:21:08;;;;;;;14.00;7.20;;;18.90;86.20;;;;;;5053029;28;20243;-83
2021/08/15 05:23:34;;;;;;;14.33;6.93;;;18.90;88.90;;;;;;5053082;28;20526;-80
2021/08/15 05:26:00;;;;;;;11.37;6.40;;;18.80;89.10;;;;;;5053131;28;20196;-80
2021/08/15 05:28:25;;;;;;;16.50;7.10;;;18.90;88.70;;;;;;5052870;28;20235;-83
2021/08/15 05:30:51;;;;;;;10.87;6.83;;;19.00;85.10;;;;;;5053065;28;20553;-81
2021/08/15 05:33:17;;;;;;;10.80;6.30;;;19.10;83.60;;;;;;5052889;28;20257;-80
2021/08/15 05:35:42;;;;;;;12.97;6.73;;;19.20;83.20;;;;;;5052783;28;20545;-82
2021/08/15 05:38:08;;;;;;;14.80;7.20;;;19.20;83.10;;;;;;5052973;28;20219;-81
2021/08/15 05:40:34;;;;;;;12.20;6.40;;;19.10;83.10;;;;;;5053009;28;20268;-80
2021/08/15 05:42:59;;;;;;;12.10;6.00;;;18.90;85.90;;;;;;5058679;28;20176;-77
2021/08/15 05:45:25;;;;;;;14.97;7.77;;;18.80;85.90;;;;;;5075053;28;20187;-77
2021/08/15 05:47:51;;;;;;;14.10;7.10;;;18.70;88.40;;;;;;5059313;28;20167;-81
2021/08/15 05:50:17;;;;;;;10.43;6.47;;;18.70;88.80;;;;;;5037282;28;20195;-83
2021/08/15 05:52:43;;;;;;;10.67;6.37;;;18.80;86.80;;;;;;5053166;28;20178;-79
2021/08/15 05:55:09;;;;;;;12.13;6.80;;;18.90;85.00;;;;;;5052754;28;20163;-81
2021/08/15 05:57:35;;;;;;;11.97;6.90;;;19.00;83.00;;;;;;5052992;28;20175;-82
2021/08/15 06:00:01;;;;;;;12.07;6.43;;;18.90;84.60;;;;;;5052904;28;20229;-82
2021/08/15 06:02:26;;;;;;;13.17;7.07;;;18.70;87.10;;;;;;5052983;28;20701;-81
2021/08/15 06:04:52;;;;;;;11.37;7.27;;;18.70;87.40;;;;;;5052805;28;20170;-81
2021/08/15 06:07:18;;;;;;;8.50;6.17;;;18.80;88.70;;;;;;5069693;28;20196;-77
2021/08/15 06:09:43;;;;;;;9.93;6.53;;;18.80;87.40;;;;;;5072747;28;20182;-77
2021/08/15 06:12:09;;;;;;;13.80;7.17;;;18.80;86.60;;;;;;5056930;28;20178;-81
2021/08/15 06:14:35;;;;;;;10.10;6.37;;;18.90;85.10;;;;;;5053690;28;20162;-80
2021/08/15 06:17:02;;;;;;;10.20;6.73;;;18.90;85.00;;;;;;5052862;28;20189;-82
2021/08/15 06:19:28;;;;;;;10.40;6.77;;;19.10;81.70;;;;;;5052280;28;20178;-81
2021/08/15 06:21:53;;;;;;;12.90;6.73;;;19.10;80.50;;;;;;5055498;28;20362;-80
2021/08/15 06:24:19;;;;;;;11.67;6.47;;;19.30;78.00;;;;;;5056274;28;20170;-81
2021/08/15 06:26:45;;;;;;;13.73;6.97;;;19.40;75.40;;;;;;5056449;28;20702;-82
2021/08/15 06:29:11;;;;;;;11.63;6.80;;;19.40;74.80;;;;;;5056375;28;20180;-81
2021/08/15 06:31:36;;;;;;;14.57;7.43;;;19.50;72.70;;;;;;5056269;28;20189;-80
2021/08/15 06:34:03;;;;;;;11.97;6.10;;;19.70;65.40;;;;;;5055870;28;20165;-80
2021/08/15 06:36:29;;;;;;;13.83;7.00;;;19.70;64.60;;;;;;5054757;28;20613;-81
2021/08/15 06:38:55;;;;;;;11.63;6.67;;;19.80;62.10;;;;;;5056243;28;20250;-82
2021/08/15 06:41:21;;;;;;;11.53;6.50;;;19.80;61.60;;;;;;5055909;28;20257;-83
2021/08/15 06:43:47;;;;;;;11.63;5.90;;;19.80;60.90;;;;;;5056065;28;20639;-81
2021/08/15 06:46:13;;;;;;;10.33;6.40;;;19.70;61.80;;;;;;5055889;28;20185;-82
2021/08/15 06:48:40;;;;;;;11.43;6.37;;;19.60;62.60;;;;;;5055780;28;20207;-81
2021/08/15 06:51:06;;;;;;;10.03;5.83;;;19.70;60.70;;;;;;5055919;28;20247;-78
2021/08/15 06:53:32;;;;;;;14.00;9.47;;;19.90;57.60;;;;;;5055907;28;20179;-82
2021/08/15 06:55:59;;;;;;;11.57;6.00;;;20.00;54.90;;;;;;5055870;28;20167;-83
2021/08/15 06:58:26;;;;;;;12.87;6.40;;;20.10;49.60;;;;;;5037928;28;20182;-81
2021/08/15 07:00:52;;;;;;;10.37;5.93;;;20.20;45.20;;;;;;5055986;28;20246;-83
2021/08/15 07:03:17;;;;;;;11.53;6.27;;;20.10;44.20;;;;;;5055317;28;20171;-81
2021/08/15 07:05:43;;;;;;;11.57;5.60;;;20.10;44.20;;;;;;5055404;28;20584;-82
2021/08/15 07:08:09;;;;;;;11.20;6.10;;;20.20;43.90;;;;;;5054523;28;20635;-82
2021/08/15 07:10:35;;;;;;;10.20;5.57;;;20.30;37.10;;;;;;5055422;28;20175;-82
2021/08/15 07:13:07;;;;;;;11.90;6.07;;;20.40;27.00;;;;;;5054252;28;20235;-77
2021/08/15 07:15:33;;;;;;;10.13;6.27;;;20.50;23.20;;;;;;5054853;28;20628;-79
2021/08/15 07:17:59;;;;;;;11.20;6.30;;;20.50;24.90;;;;;;5055263;28;20255;-80
2021/08/15 07:20:26;;;;;;;12.00;5.80;;;20.70;24.00;;;;;;5055082;28;20310;-78
2021/08/15 07:22:52;;;;;;;9.67;5.50;;;20.70;21.40;;;;;;5054835;28;20212;-81
2021/08/15 07:25:19;;;;;;;10.07;5.50;;;20.80;12.10;;;;;;5054830;28;20223;-80
2021/08/15 07:27:45;;;;;;;10.17;5.53;;;20.80;5.80;;;;;;5055216;28;20249;-79
2021/08/15 07:30:12;;;;;;;13.70;6.20;;;21.00;1.00;;;;;;5054817;28;20228;-80
2021/08/15 07:32:58;;;;;;;10.33;6.13;;;20.90;1.00;;;;;;5054945;28;20203;-78
2021/08/15 07:35:25;;;;;;;10.77;5.97;;;20.90;1.00;;;;;;5066831;28;20220;-75
2021/08/15 07:37:51;;;;;;;9.37;5.60;;;20.90;1.00;;;;;;5057914;28;20218;-79
2021/08/15 07:40:17;;;;;;;9.30;5.63;;;21.00;1.00;;;;;;5055648;28;20593;-81
2021/08/15 07:42:45;;;;;;;10.57;5.77;;;21.00;1.00;;;;;;5054933;28;20196;-82
2021/08/15 07:45:11;;;;;;;8.73;5.33;;;20.80;3.40;;;;;;5054483;28;20182;-81
2021/08/15 07:47:37;;;;;;;8.87;5.40;;;20.90;2.20;;;;;;5054945;28;20177;-79
2021/08/15 07:50:03;;;;;;;10.67;5.50;;;21.20;1.00;;;;;;5053355;28;20517;-81
2021/08/15 07:52:29;;;;;;;7.97;4.77;;;21.30;1.00;;;;;;5054405;28;20179;-80
2021/08/15 07:54:55;;;;;;;8.60;5.17;;;21.60;1.00;;;;;;5054838;28;20310;-79
2021/08/15 07:57:20;;;;;;;10.87;5.73;;;21.50;1.00;;;;;;5054852;28;20644;-79
2021/08/15 07:59:46;;;;;;;10.87;5.80;;;21.50;1.00;;;;;;5054533;28;20661;-80
2021/08/15 08:02:12;;;;;;;11.10;5.30;;;21.50;1.00;;;;;;5054488;28;20601;-81
2021/08/15 08:04:38;;;;;;;9.37;5.27;;;21.50;1.00;;;;;;5054648;28;20222;-81
2021/08/15 08:07:06;;;;;;;9.77;5.23;;;21.60;1.00;;;;;;5054771;28;20222;-81
2021/08/15 08:09:32;;;;;;;10.40;4.93;;;21.80;1.00;;;;;;5036726;28;20195;-83
2021/08/15 08:11:59;;;;;;;10.03;5.33;;;21.90;1.00;;;;;;5055612;28;20176;-85
2021/08/15 08:14:25;;;;;;;8.53;4.97;;;22.00;1.00;;;;;;5054165;28;20633;-81
2021/08/15 08:16:52;;;;;;;12.33;5.00;;;22.10;1.00;;;;;;5054713;28;20175;-82
2021/08/15 08:19:18;;;;;;;10.47;5.57;;;22.20;1.00;;;;;;5060082;28;20172;-79
2021/08/15 08:21:44;;;;;;;9.73;4.70;;;22.30;1.00;;;;;;5064307;28;20287;-80
2021/08/15 08:24:10;;;;;;;8.30;5.40;;;22.30;1.00;;;;;;5058060;28;20656;-80
2021/08/15 08:26:35;;;;;;;9.63;5.00;;;22.40;1.00;;;;;;5065326;28;20200;-78
2021/08/15 08:29:01;;;;;;;8.57;5.10;;;22.50;1.00;;;;;;5067859;28;20165;-81
2021/08/15 08:31:27;;;;;;;9.30;5.00;;;22.50;1.00;;;;;;5065967;28;20186;-82
2021/08/15 08:33:54;;;;;;;7.37;4.83;;;22.70;1.00;;;;;;5054640;28;20180;-81
2021/08/15 08:36:20;;;;;;;7.40;4.23;;;22.70;1.00;;;;;;5054305;28;20181;-80
2021/08/15 08:38:45;;;;;;;10.00;5.40;;;22.70;1.00;;;;;;5054254;28;20178;-81
2021/08/15 08:41:14;;;;;;;8.00;4.57;;;22.80;1.00;;;;;;5054304;28;20215;-84
2021/08/15 08:43:41;;;;;;;8.13;4.60;;;23.00;1.00;;;;;;5053169;28;20167;-78
2021/08/15 08:46:09;;;;;;;8.03;4.77;;;23.20;1.00;;;;;;5054146;28;20242;-82
2021/08/15 08:48:35;;;;;;;10.37;4.83;;;23.40;99.90;;;;;;5053569;28;20647;-82
2021/08/15 08:51:02;;;;;;;7.57;4.43;;;23.30;99.90;;;;;;5053967;28;20197;-82
2021/08/15 08:53:29;;;;;;;7.97;4.47;;;23.10;99.90;;;;;;5053634;28;20169;-82
2021/08/15 08:55:55;;;;;;;12.40;4.57;;;23.20;1.00;;;;;;5053809;28;20535;-82
2021/08/15 08:58:21;;;;;;;8.93;4.50;;;23.20;99.90;;;;;;5053232;28;20656;-81
2021/08/15 09:00:49;;;;;;;9.43;4.60;;;23.30;99.90;;;;;;5053742;28;20655;-81
2021/08/15 09:03:14;;;;;;;7.27;4.73;;;23.30;99.90;;;;;;5053294;28;20176;-81
2021/08/15 09:05:40;;;;;;;8.87;4.53;;;23.30;99.90;;;;;;5065236;28;20201;-78
2021/08/15 09:08:06;;;;;;;7.63;4.50;;;23.50;1.00;;;;;;5066682;28;20579;-82
2021/08/15 09:10:36;;;;;;;7.70;4.27;;;23.50;22.00;;;;;;5053252;28;20673;-81
2021/08/15 09:13:09;;;;;;;6.90;4.00;;;23.50;99.90;;;;;;5053684;28;20536;-83
2021/08/15 09:15:36;;;;;;;9.40;5.00;;;23.60;27.20;;;;;;5053503;28;20174;-82
2021/08/15 09:18:02;;;;;;;9.43;4.87;;;23.70;93.30;;;;;;5053446;28;20174;-81
2021/08/15 09:20:38;;;;;;;9.77;4.73;;;23.90;1.00;;;;;;5054267;28;20164;-79
2021/08/15 09:23:18;;;;;;;8.80;4.63;;;24.10;2.90;;;;;;5035541;28;20202;-81
2021/08/15 09:25:44;;;;;;;9.07;4.90;;;24.10;99.90;;;;;;5053601;28;20163;-79
2021/08/15 09:28:10;;;;;;;8.40;4.20;;;24.10;1.00;;;;;;5055662;28;20204;-78
2021/08/15 09:30:36;;;;;;;9.50;4.70;;;24.10;1.00;;;;;;5071455;28;20158;-76
2021/08/15 09:33:10;;;;;;;7.43;4.40;;;24.10;1.00;;;;;;5069759;28;20198;-81
2021/08/15 09:35:35;;;;;;;8.03;4.23;;;24.10;99.90;;;;;;5053284;28;20168;-81
2021/08/15 09:38:09;;;;;;;6.90;4.50;;;24.40;99.90;;;;;;5058887;28;20156;-83
2021/08/15 09:40:50;;;;;;;8.03;4.23;;;24.50;99.90;;;;;;5053028;28;20177;-82
2021/08/15 09:43:30;;;;;;;8.80;4.07;;;24.60;29.60;;;;;;5053562;28;20683;-84
2021/08/15 09:46:00;;;;;;;8.90;4.53;;;24.70;1.00;;;;;;5053164;28;20188;-83
2021/08/15 09:48:30;;;;;;;6.83;4.23;;;24.90;99.90;;;;;;5053364;28;20263;-81
2021/08/15 09:51:07;;;;;;;8.07;4.40;;;24.90;1.00;;;;;;5036136;28;20165;-78
2021/08/15 09:53:35;;;;;;;9.43;4.10;;;24.90;99.90;;;;;;5053685;28;20172;-81
2021/08/15 09:56:01;;;;;;;8.00;3.53;;;25.00;18.50;;;;;;5036263;28;20168;-82
2021/08/15 09:58:27;;;;;;;8.27;4.23;;;25.00;1.00;;;;;;5056864;28;20561;-82
2021/08/15 10:00:54;;;;;;;6.73;4.00;;;24.90;1.00;;;;;;5057087;28;20211;-82
2021/08/15 10:03:20;;;;;;;7.97;4.27;;;25.10;99.90;;;;;;5057184;28;20215;-82
2021/08/15 10:05:45;;;;;;;8.03;3.53;;;25.20;99.90;;;;;;5056716;28;20219;-81
2021/08/15 10:08:11;;;;;;;7.07;4.10;;;25.20;99.90;;;;;;5057006;28;20188;-80
2021/08/15 10:10:37;;;;;;;10.10;4.27;;;25.30;99.90;;;;;;5055032;28;20201;-82
2021/08/15 10:13:04;;;;;;;10.73;4.33;;;25.30;1.00;;;;;;5057583;28;20184;-83
2021/08/15 10:15:32;;;;;;;9.83;3.50;;;25.30;1.00;;;;;;5059840;28;20267;-80
2021/08/15 10:18:00;;;;;;;10.33;4.50;;;25.30;99.90;;;;;;5064162;28;20177;-83
2021/08/15 10:20:30;;;;;;;8.57;4.10;;;25.30;99.90;;;;;;5048057;28;20183;-81
2021/08/15 10:23:12;;;;;;;11.13;4.13;;;25.60;1.00;;;;;;5062756;28;20215;-84
2021/08/15 10:25:44;;;;;;;7.37;4.70;;;25.80;1.00;;;;;;5060405;28;20165;-84
2021/08/15 10:28:29;;;;;;;10.67;4.30;;;25.80;99.90;;;;;;5067234;28;20196;-81
2021/08/15 10:30:57;;;;;;;10.60;4.40;;;25.80;99.90;;;;;;5054102;28;20264;-82
2021/08/15 10:33:25;;;;;;;7.60;4.10;;;25.80;1.00;;;;;;5060758;28;20169;-81
2021/08/15 10:36:32;;;;;;;6.17;3.60;;;25.80;99.90;;;;;;5063503;28;20165;-84
2021/08/15 10:39:00;;;;;;;6.20;3.90;;;25.80;99.90;;;;;;5020215;28;20176;-82
2021/08/15 10:41:44;;;;;;;8.93;4.50;;;25.90;1.00;;;;;;5057957;28;20208;-82
2021/08/15 10:44:10;;;;;;;8.30;3.90;;;25.90;99.90;;;;;;5075170;28;20168;-77
2021/08/15 10:46:57;;;;;;;7.63;3.63;;;26.00;99.90;;;;;;5079198;28;20173;-79
2021/08/15 10:49:50;;;;;;;9.93;3.63;;;26.00;1.00;;;;;;5078464;28;20180;-77
2021/08/15 10:52:27;;;;;;;6.37;3.33;;;26.20;99.90;;;;;;5079694;28;20165;-77
2021/08/15 10:54:55;;;;;;;6.90;3.60;;;26.10;1.00;;;;;;5079138;28;20168;-76
2021/08/15 10:57:42;;;;;;;6.80;3.53;;;26.00;1.00;;;;;;5068843;28;20197;-79
2021/08/15 11:00:29;;;;;;;7.30;3.87;;;26.00;99.90;;;;;;5060285;28;20195;-81
2021/08/15 11:03:16;;;;;;;7.53;3.80;;;26.10;99.90;;;;;;5059488;28;20208;-81
2021/08/15 11:05:41;;;;;;;7.17;3.77;;;26.20;99.90;;;;;;5042829;28;20496;-80
2021/08/15 11:08:33;;;;;;;7.20;3.50;;;26.40;1.00;;;;;;5055354;28;20255;-83
2021/08/15 11:11:10;;;;;;;7.93;3.63;;;26.50;99.90;;;;;;5026950;28;20189;-82
2021/08/15 11:13:38;;;;;;;5.83;3.27;;;26.60;99.90;;;;;;5055421;28;20172;-82
2021/08/15 11:16:25;;;;;;;5.90;3.67;;;26.60;1.00;;;;;;5055636;28;20165;-80
2021/08/15 11:19:10;;;;;;;10.97;3.57;;;26.70;99.90;;;;;;5055363;28;20172;-83
2021/08/15 11:22:13;;;;;;;5.77;3.63;;;26.90;1.00;;;;;;5055153;28;20189;-82
2021/08/15 11:24:45;;;;;;;8.13;3.33;;;27.10;99.90;;;;;;5055985;28;20169;-83
2021/08/15 11:27:27;;;;;;;7.07;3.50;;;27.10;1.00;;;;;;5055522;28;20193;-82
2021/08/15 11:29:54;;;;;;;7.57;4.07;;;27.20;1.00;;;;;;5055308;28;20235;-80
2021/08/15 11:32:28;;;;;;;5.77;3.50;;;27.30;99.90;;;;;;5055446;28;20169;-82
2021/08/15 11:34:58;;;;;;;9.07;3.80;;;27.10;99.90;;;;;;5055026;28;20258;-80
2021/08/15 11:37:27;;;;;;;5.83;3.40;;;27.00;1.00;;;;;;5038443;28;20169;-80
2021/08/15 11:39:53;;;;;;;7.27;3.73;;;27.10;1.00;;;;;;5056581;28;20178;-81
2021/08/15 11:42:22;;;;;;;6.30;3.47;;;27.20;1.00;;;;;;5054791;28;20206;-81
2021/08/15 11:44:54;;;;;;;6.03;3.20;;;27.20;1.00;;;;;;5055036;28;20682;-81
2021/08/15 11:47:29;;;;;;;7.23;3.37;;;27.30;99.90;;;;;;5054951;28;20169;-83
2021/08/15 11:49:58;;;;;;;6.20;3.60;;;27.30;1.00;;;;;;5054919;28;20326;-82
2021/08/15 11:52:36;;;;;;;7.57;3.33;;;27.50;99.90;;;;;;5054728;28;20173;-81
2021/08/15 11:55:10;;;;;;;8.07;3.80;;;27.80;1.00;;;;;;5054954;28;20332;-83
2021/08/15 11:57:46;;;;;;;6.27;3.57;;;27.70;1.00;;;;;;5054695;28;20224;-79
2021/08/15 12:00:13;;;;;;;6.47;3.33;;;27.50;1.00;;;;;;5054928;28;20199;-79
2021/08/15 12:02:39;;;;;;;7.80;3.97;;;27.40;1.00;;;;;;5054296;28;20207;-80
2021/08/15 12:05:05;;;;;;;8.53;3.97;;;27.30;99.90;;;;;;5054866;28;20161;-83
2021/08/15 12:07:31;;;;;;;5.53;3.07;;;27.50;1.00;;;;;;5054562;28;20170;-82
2021/08/15 12:10:23;;;;;;;7.37;3.40;;;27.70;96.90;;;;;;5054575;28;20653;-81
2021/08/15 12:13:11;;;;;;;8.30;3.43;;;27.50;1.00;;;;;;5054845;28;20214;-85
2021/08/15 12:15:38;;;;;;;5.40;3.40;;;27.50;1.00;;;;;;5054912;28;20211;-80
2021/08/15 12:18:04;;;;;;;6.13;3.30;;;27.70;1.00;;;;;;5054213;28;20177;-82
2021/08/15 12:20:30;;;;;;;8.53;3.70;;;27.80;1.00;;;;;;5054728;28;20230;-82
2021/08/15 12:23:07;;;;;;;6.17;3.37;;;27.80;1.00;;;;;;5054502;28;20695;-81
2021/08/15 12:25:33;;;;;;;5.93;3.47;;;27.70;1.00;;;;;;5054616;28;20161;-80
2021/08/15 12:28:12;;;;;;;5.83;3.43;;;27.50;1.00;;;;;;5054732;28;20185;-81
2021/08/15 12:30:38;;;;;;;6.23;3.27;;;27.40;11.60;;;;;;5054192;28;20169;-79
2021/08/15 12:33:24;;;;;;;6.90;3.77;;;27.50;24.90;;;;;;5067429;28;20169;-82
2021/08/15 12:35:50;;;;;;;5.27;3.23;;;27.40;99.90;;;;;;5053991;28;20543;-81
2021/08/15 12:38:30;;;;;;;5.93;3.47;;;27.40;99.90;;;;;;5038464;28;20173;-84
2021/08/15 12:41:23;;;;;;;4.63;3.13;;;27.50;99.90;;;;;;5054028;28;20183;-81
2021/08/15 12:44:09;;;;;;;7.10;3.47;;;27.80;99.90;;;;;;5053952;28;20164;-82
2021/08/15 12:46:37;;;;;;;7.47;3.67;;;27.90;8.90;;;;;;5055627;28;20192;-82
2021/08/15 12:49:24;;;;;;;6.10;3.60;;;28.00;1.00;;;;;;5055073;28;20214;-82